sensor_id;sensor_type;location;lat;lon;timestamp;P1;durP1;ratioP1;P2;durP2;ratioP2
11185;SDS011;5649;52.422;13.754;2023-03-01T00:01:24;7.00;;;3.50;;
11185;SDS011;5649;52.422;13.754;2023-03-01T00:03:51;6.10;;;3.30;;
11185;SDS011;5649;52.422;13.754;2023-03-01T00:06:17;6.20;;;3.23;;
11185;SDS011;5649;52.422;13.754;2023-03-01T00:08:45;10.13;;;3.47;;
11185;SDS011;5649;52.422;13.754;2023-03-01T00:11:12;8.23;;;3.77;;
11185;SDS011;5649;52.422;13.754;2023-03-01T00:13:39;10.53;;;3.50;;
11185;SDS011;5649;52.422;13.754;2023-03-01T00:16:06;7.20;;;3.57;;
11185;SDS011;5649;52.422;13.754;2023-03-01T00:18:33;7.00;;;3.17;;
11185;SDS011;5649;52.422;13.754;2023-03-01T00:20:59;6.33;;;4.17;;
11185;SDS011;5649;52.422;13.754;2023-03-01T00:23:25;23.60;;;4.20;;
11185;SDS011;5649;52.422;13.754;2023-03-01T00:25:52;6.00;;;3.20;;
11185;SDS011;5649;52.422;13.754;2023-03-01T00:28:18;11.20;;;4.70;;
11185;SDS011;5649;52.422;13.754;2023-03-01T00:30:44;9.50;;;4.30;;
11185;SDS011;5649;52.422;13.754;2023-03-01T00:33:11;5.90;;;3.90;;
11185;SDS011;5649;52.422;13.754;2023-03-01T00:35:37;5.37;;;3.33;;
11185;SDS011;5649;52.422;13.754;2023-03-01T00:38:03;12.80;;;4.30;;
11185;SDS011;5649;52.422;13.754;2023-03-01T00:40:31;6.83;;;3.63;;
11185;SDS011;5649;52.422;13.754;2023-03-01T00:42:57;4.67;;;3.43;;
11185;SDS011;5649;52.422;13.754;2023-03-01T00:45:23;13.03;;;3.50;;
11185;SDS011;5649;52.422;13.754;2023-03-01T00:47:49;11.87;;;4.20;;
11185;SDS011;5649;52.422;13.754;2023-03-01T00:50:16;5.97;;;3.30;;
11185;SDS011;5649;52.422;13.754;2023-03-01T00:52:42;10.73;;;3.87;;
11185;SDS011;5649;52.422;13.754;2023-03-01T00:55:08;6.70;;;2.77;;
11185;SDS011;5649;52.422;13.754;2023-03-01T00:57:34;5.40;;;2.90;;
11185;SDS011;5649;52.422;13.754;2023-03-01T01:00:00;13.70;;;3.57;;
11185;SDS011;5649;52.422;13.754;2023-03-01T01:02:26;6.73;;;3.47;;
11185;SDS011;5649;52.422;13.754;2023-03-01T01:04:52;11.17;;;3.70;;
11185;SDS011;5649;52.422;13.754;2023-03-01T01:07:18;13.93;;;3.40;;
11185;SDS011;5649;52.422;13.754;2023-03-01T01:09:47;15.57;;;5.00;;
11185;SDS011;5649;52.422;13.754;2023-03-01T01:12:13;6.33;;;2.90;;
11185;SDS011;5649;52.422;13.754;2023-03-01T01:14:39;12.00;;;4.13;;
11185;SDS011;5649;52.422;13.754;2023-03-01T01:17:05;7.77;;;5.17;;
11185;SDS011;5649;52.422;13.754;2023-03-01T01:19:31;7.30;;;2.80;;
11185;SDS011;5649;52.422;13.754;2023-03-01T01:21:57;7.87;;;4.60;;
11185;SDS011;5649;52.422;13.754;2023-03-01T01:24:23;11.50;;;4.20;;
11185;SDS011;5649;52.422;13.754;2023-03-01T01:26:49;12.73;;;5.73;;
11185;SDS011;5649;52.422;13.754;2023-03-01T01:29:15;9.60;;;4.47;;
11185;SDS011;5649;52.422;13.754;2023-03-01T01:31:42;5.30;;;3.37;;
11185;SDS011;5649;52.422;13.754;2023-03-01T01:34:10;9.60;;;4.60;;
11185;SDS011;5649;52.422;13.754;2023-03-01T01:36:37;12.27;;;4.53;;
11185;SDS011;5649;52.422;13.754;2023-03-01T01:39:04;4.33;;;3.00;;
11185;SDS011;5649;52.422;13.754;2023-03-01T01:41:30;12.73;;;4.30;;
11185;SDS011;5649;52.422;13.754;2023-03-01T01:46:34;9.13;;;3.50;;
11185;SDS011;5649;52.422;13.754;2023-03-01T01:49:02;6.73;;;3.20;;
11185;SDS011;5649;52.422;13.754;2023-03-01T01:51:33;7.43;;;3.57;;
11185;SDS011;5649;52.422;13.754;2023-03-01T01:54:03;6.23;;;3.80;;
11185;SDS011;5649;52.422;13.754;2023-03-01T01:56:31;3.73;;;2.50;;
11185;SDS011;5649;52.422;13.754;2023-03-01T01:58:57;10.67;;;4.43;;
11185;SDS011;5649;52.422;13.754;2023-03-01T02:01:24;9.20;;;3.77;;
11185;SDS011;5649;52.422;13.754;2023-03-01T02:03:51;8.33;;;3.40;;
11185;SDS011;5649;52.422;13.754;2023-03-01T02:06:28;6.87;;;3.17;;
11185;SDS011;5649;52.422;13.754;2023-03-01T02:08:59;4.73;;;3.20;;
11185;SDS011;5649;52.422;13.754;2023-03-01T02:11:27;6.70;;;3.57;;
11185;SDS011;5649;52.422;13.754;2023-03-01T02:13:55;15.43;;;4.40;;
11185;SDS011;5649;52.422;13.754;2023-03-01T02:16:21;7.60;;;3.50;;
11185;SDS011;5649;52.422;13.754;2023-03-01T02:18:47;5.23;;;3.63;;
11185;SDS011;5649;52.422;13.754;2023-03-01T02:23:39;5.60;;;3.70;;
11185;SDS011;5649;52.422;13.754;2023-03-01T02:26:06;16.17;;;3.90;;
11185;SDS011;5649;52.422;13.754;2023-03-01T02:28:38;14.90;;;4.30;;
11185;SDS011;5649;52.422;13.754;2023-03-01T02:31:06;8.50;;;3.97;;
11185;SDS011;5649;52.422;13.754;2023-03-01T02:33:51;6.00;;;3.23;;
11185;SDS011;5649;52.422;13.754;2023-03-01T02:36:19;8.03;;;4.30;;
11185;SDS011;5649;52.422;13.754;2023-03-01T02:38:46;6.33;;;4.00;;
11185;SDS011;5649;52.422;13.754;2023-03-01T02:41:13;10.60;;;4.23;;
11185;SDS011;5649;52.422;13.754;2023-03-01T02:43:40;5.03;;;3.10;;
11185;SDS011;5649;52.422;13.754;2023-03-01T02:46:14;6.13;;;3.73;;
11185;SDS011;5649;52.422;13.754;2023-03-01T02:48:42;15.10;;;3.60;;
11185;SDS011;5649;52.422;13.754;2023-03-01T02:54:02;10.83;;;4.20;;
11185;SDS011;5649;52.422;13.754;2023-03-01T02:56:32;8.20;;;4.60;;
11185;SDS011;5649;52.422;13.754;2023-03-01T02:58:58;9.10;;;4.00;;
11185;SDS011;5649;52.422;13.754;2023-03-01T03:01:25;6.43;;;3.70;;
11185;SDS011;5649;52.422;13.754;2023-03-01T03:04:01;6.37;;;3.73;;
11185;SDS011;5649;52.422;13.754;2023-03-01T03:06:27;7.50;;;3.67;;
11185;SDS011;5649;52.422;13.754;2023-03-01T03:08:54;10.93;;;4.83;;
11185;SDS011;5649;52.422;13.754;2023-03-01T03:11:20;9.40;;;3.63;;
11185;SDS011;5649;52.422;13.754;2023-03-01T03:13:46;11.20;;;3.60;;
11185;SDS011;5649;52.422;13.754;2023-03-01T03:16:13;5.40;;;3.30;;
11185;SDS011;5649;52.422;13.754;2023-03-01T03:18:39;9.00;;;3.70;;
11185;SDS011;5649;52.422;13.754;2023-03-01T03:21:08;4.67;;;3.60;;
11185;SDS011;5649;52.422;13.754;2023-03-01T03:23:37;14.30;;;4.37;;
11185;SDS011;5649;52.422;13.754;2023-03-01T03:26:04;5.50;;;3.73;;
11185;SDS011;5649;52.422;13.754;2023-03-01T03:28:30;8.20;;;3.13;;
11185;SDS011;5649;52.422;13.754;2023-03-01T03:30:56;8.67;;;4.70;;
11185;SDS011;5649;52.422;13.754;2023-03-01T03:33:23;6.00;;;3.50;;
11185;SDS011;5649;52.422;13.754;2023-03-01T03:35:49;7.30;;;4.10;;
11185;SDS011;5649;52.422;13.754;2023-03-01T03:38:17;8.03;;;4.20;;
11185;SDS011;5649;52.422;13.754;2023-03-01T03:40:45;12.83;;;3.13;;
11185;SDS011;5649;52.422;13.754;2023-03-01T03:43:12;7.57;;;3.37;;
11185;SDS011;5649;52.422;13.754;2023-03-01T03:45:39;6.20;;;3.57;;
11185;SDS011;5649;52.422;13.754;2023-03-01T03:48:05;2.97;;;2.60;;
11185;SDS011;5649;52.422;13.754;2023-03-01T03:50:32;5.03;;;3.53;;
11185;SDS011;5649;52.422;13.754;2023-03-01T03:53:00;9.40;;;3.67;;
11185;SDS011;5649;52.422;13.754;2023-03-01T03:55:26;5.57;;;3.10;;
11185;SDS011;5649;52.422;13.754;2023-03-01T03:57:56;9.67;;;3.73;;
11185;SDS011;5649;52.422;13.754;2023-03-01T04:00:23;11.23;;;3.07;;
11185;SDS011;5649;52.422;13.754;2023-03-01T04:02:49;6.17;;;3.20;;
11185;SDS011;5649;52.422;13.754;2023-03-01T04:05:16;10.33;;;3.67;;
11185;SDS011;5649;52.422;13.754;2023-03-01T04:07:43;11.40;;;4.00;;
11185;SDS011;5649;52.422;13.754;2023-03-01T04:10:11;3.17;;;2.67;;
11185;SDS011;5649;52.422;13.754;2023-03-01T04:12:37;15.87;;;4.87;;
11185;SDS011;5649;52.422;13.754;2023-03-01T04:15:04;16.40;;;3.83;;
11185;SDS011;5649;52.422;13.754;2023-03-01T04:17:41;6.00;;;3.27;;
11185;SDS011;5649;52.422;13.754;2023-03-01T04:20:11;7.23;;;3.63;;
11185;SDS011;5649;52.422;13.754;2023-03-01T04:22:37;12.90;;;3.40;;
11185;SDS011;5649;52.422;13.754;2023-03-01T04:25:04;3.13;;;2.83;;
11185;SDS011;5649;52.422;13.754;2023-03-01T04:27:34;5.33;;;3.80;;
11185;SDS011;5649;52.422;13.754;2023-03-01T04:30:00;6.00;;;3.30;;
11185;SDS011;5649;52.422;13.754;2023-03-01T04:32:26;10.00;;;2.90;;
11185;SDS011;5649;52.422;13.754;2023-03-01T04:34:52;6.17;;;3.53;;
11185;SDS011;5649;52.422;13.754;2023-03-01T04:37:18;20.80;;;4.57;;
11185;SDS011;5649;52.422;13.754;2023-03-01T04:39:44;3.60;;;3.07;;
11185;SDS011;5649;52.422;13.754;2023-03-01T04:42:11;6.03;;;3.50;;
11185;SDS011;5649;52.422;13.754;2023-03-01T04:44:37;5.50;;;3.90;;
11185;SDS011;5649;52.422;13.754;2023-03-01T04:47:03;15.27;;;3.57;;
11185;SDS011;5649;52.422;13.754;2023-03-01T04:49:29;4.30;;;3.90;;
11185;SDS011;5649;52.422;13.754;2023-03-01T04:51:56;7.83;;;4.33;;
11185;SDS011;5649;52.422;13.754;2023-03-01T04:54:27;5.00;;;3.03;;
11185;SDS011;5649;52.422;13.754;2023-03-01T04:56:53;5.40;;;3.33;;
11185;SDS011;5649;52.422;13.754;2023-03-01T04:59:19;5.70;;;3.87;;
11185;SDS011;5649;52.422;13.754;2023-03-01T05:01:49;16.83;;;5.97;;
11185;SDS011;5649;52.422;13.754;2023-03-01T05:04:15;3.53;;;2.90;;
11185;SDS011;5649;52.422;13.754;2023-03-01T05:06:41;7.70;;;3.57;;
11185;SDS011;5649;52.422;13.754;2023-03-01T05:09:08;7.00;;;4.20;;
11185;SDS011;5649;52.422;13.754;2023-03-01T05:11:34;4.87;;;2.90;;
11185;SDS011;5649;52.422;13.754;2023-03-01T05:14:04;15.13;;;3.90;;
11185;SDS011;5649;52.422;13.754;2023-03-01T05:16:31;7.07;;;3.40;;
11185;SDS011;5649;52.422;13.754;2023-03-01T05:18:57;15.00;;;4.43;;
11185;SDS011;5649;52.422;13.754;2023-03-01T05:21:23;6.13;;;3.63;;
11185;SDS011;5649;52.422;13.754;2023-03-01T05:23:50;8.70;;;4.63;;
11185;SDS011;5649;52.422;13.754;2023-03-01T05:26:16;8.60;;;4.00;;
11185;SDS011;5649;52.422;13.754;2023-03-01T05:28:43;5.87;;;3.50;;
11185;SDS011;5649;52.422;13.754;2023-03-01T05:31:09;7.13;;;3.73;;
11185;SDS011;5649;52.422;13.754;2023-03-01T05:33:36;11.27;;;4.10;;
11185;SDS011;5649;52.422;13.754;2023-03-01T05:36:03;11.40;;;4.47;;
11185;SDS011;5649;52.422;13.754;2023-03-01T05:38:29;7.07;;;3.10;;
11185;SDS011;5649;52.422;13.754;2023-03-01T05:40:56;12.63;;;3.30;;
11185;SDS011;5649;52.422;13.754;2023-03-01T05:43:22;8.07;;;2.93;;
11185;SDS011;5649;52.422;13.754;2023-03-01T05:45:48;8.30;;;5.20;;
11185;SDS011;5649;52.422;13.754;2023-03-01T05:48:14;5.40;;;3.30;;
11185;SDS011;5649;52.422;13.754;2023-03-01T05:50:41;8.40;;;4.37;;
11185;SDS011;5649;52.422;13.754;2023-03-01T05:53:15;18.70;;;3.43;;
11185;SDS011;5649;52.422;13.754;2023-03-01T05:55:42;8.00;;;4.40;;
11185;SDS011;5649;52.422;13.754;2023-03-01T05:58:10;23.50;;;4.67;;
11185;SDS011;5649;52.422;13.754;2023-03-01T06:00:39;8.17;;;3.47;;
11185;SDS011;5649;52.422;13.754;2023-03-01T06:03:05;14.27;;;4.87;;
11185;SDS011;5649;52.422;13.754;2023-03-01T06:05:31;6.93;;;4.00;;
11185;SDS011;5649;52.422;13.754;2023-03-01T06:07:58;14.97;;;4.13;;
11185;SDS011;5649;52.422;13.754;2023-03-01T06:10:25;6.33;;;3.67;;
11185;SDS011;5649;52.422;13.754;2023-03-01T06:12:51;8.70;;;3.07;;
11185;SDS011;5649;52.422;13.754;2023-03-01T06:15:17;7.10;;;4.10;;
11185;SDS011;5649;52.422;13.754;2023-03-01T06:17:44;10.70;;;5.03;;
11185;SDS011;5649;52.422;13.754;2023-03-01T06:22:37;6.33;;;3.50;;
11185;SDS011;5649;52.422;13.754;2023-03-01T06:25:03;13.50;;;4.73;;
11185;SDS011;5649;52.422;13.754;2023-03-01T06:27:29;7.40;;;4.07;;
11185;SDS011;5649;52.422;13.754;2023-03-01T06:29:55;8.90;;;4.23;;
11185;SDS011;5649;52.422;13.754;2023-03-01T06:32:21;10.73;;;4.50;;
11185;SDS011;5649;52.422;13.754;2023-03-01T06:34:47;12.23;;;4.97;;
11185;SDS011;5649;52.422;13.754;2023-03-01T06:37:13;9.00;;;5.43;;
11185;SDS011;5649;52.422;13.754;2023-03-01T06:39:39;10.50;;;5.70;;
11185;SDS011;5649;52.422;13.754;2023-03-01T06:42:06;13.00;;;5.40;;
11185;SDS011;5649;52.422;13.754;2023-03-01T06:44:32;14.80;;;5.80;;
11185;SDS011;5649;52.422;13.754;2023-03-01T06:46:58;23.47;;;6.87;;
11185;SDS011;5649;52.422;13.754;2023-03-01T06:49:25;15.00;;;6.50;;
11185;SDS011;5649;52.422;13.754;2023-03-01T06:51:51;21.73;;;6.33;;
11185;SDS011;5649;52.422;13.754;2023-03-01T06:54:17;14.30;;;5.53;;
11185;SDS011;5649;52.422;13.754;2023-03-01T06:56:46;14.07;;;6.00;;
11185;SDS011;5649;52.422;13.754;2023-03-01T06:59:12;22.33;;;6.23;;
11185;SDS011;5649;52.422;13.754;2023-03-01T07:01:38;16.07;;;5.13;;
11185;SDS011;5649;52.422;13.754;2023-03-01T07:04:04;12.77;;;5.00;;
11185;SDS011;5649;52.422;13.754;2023-03-01T07:06:30;14.93;;;5.83;;
11185;SDS011;5649;52.422;13.754;2023-03-01T07:08:56;12.67;;;6.87;;
11185;SDS011;5649;52.422;13.754;2023-03-01T07:11:22;13.50;;;7.17;;
11185;SDS011;5649;52.422;13.754;2023-03-01T07:13:48;21.97;;;6.90;;
11185;SDS011;5649;52.422;13.754;2023-03-01T07:16:14;27.70;;;6.30;;
11185;SDS011;5649;52.422;13.754;2023-03-01T07:18:41;13.03;;;6.00;;
11185;SDS011;5649;52.422;13.754;2023-03-01T07:21:08;17.47;;;7.27;;
11185;SDS011;5649;52.422;13.754;2023-03-01T07:23:34;11.90;;;6.00;;
11185;SDS011;5649;52.422;13.754;2023-03-01T07:26:00;22.47;;;9.63;;
11185;SDS011;5649;52.422;13.754;2023-03-01T07:28:27;21.43;;;8.97;;
11185;SDS011;5649;52.422;13.754;2023-03-01T07:30:53;12.10;;;7.00;;
11185;SDS011;5649;52.422;13.754;2023-03-01T07:33:19;20.13;;;7.80;;
11185;SDS011;5649;52.422;13.754;2023-03-01T07:35:45;21.77;;;7.90;;
11185;SDS011;5649;52.422;13.754;2023-03-01T07:38:11;19.33;;;8.10;;
11185;SDS011;5649;52.422;13.754;2023-03-01T07:40:37;34.73;;;7.83;;
11185;SDS011;5649;52.422;13.754;2023-03-01T07:43:03;13.07;;;6.73;;
11185;SDS011;5649;52.422;13.754;2023-03-01T07:45:29;8.67;;;6.23;;
11185;SDS011;5649;52.422;13.754;2023-03-01T07:47:55;24.50;;;6.97;;
11185;SDS011;5649;52.422;13.754;2023-03-01T07:50:22;16.37;;;7.40;;
11185;SDS011;5649;52.422;13.754;2023-03-01T07:52:48;26.60;;;7.40;;
11185;SDS011;5649;52.422;13.754;2023-03-01T07:55:15;17.77;;;6.80;;
11185;SDS011;5649;52.422;13.754;2023-03-01T07:57:42;17.43;;;9.53;;
11185;SDS011;5649;52.422;13.754;2023-03-01T08:00:10;11.33;;;6.50;;
11185;SDS011;5649;52.422;13.754;2023-03-01T08:02:36;13.40;;;6.87;;
11185;SDS011;5649;52.422;13.754;2023-03-01T08:05:03;17.93;;;6.57;;
11185;SDS011;5649;52.422;13.754;2023-03-01T08:07:29;27.60;;;7.60;;
11185;SDS011;5649;52.422;13.754;2023-03-01T08:09:55;17.23;;;8.00;;
11185;SDS011;5649;52.422;13.754;2023-03-01T08:12:21;17.33;;;7.27;;
11185;SDS011;5649;52.422;13.754;2023-03-01T08:14:47;18.17;;;8.30;;
11185;SDS011;5649;52.422;13.754;2023-03-01T08:17:13;14.80;;;7.37;;
11185;SDS011;5649;52.422;13.754;2023-03-01T08:19:39;17.50;;;7.90;;
11185;SDS011;5649;52.422;13.754;2023-03-01T08:22:05;17.50;;;8.03;;
11185;SDS011;5649;52.422;13.754;2023-03-01T08:24:31;14.17;;;8.60;;
11185;SDS011;5649;52.422;13.754;2023-03-01T08:26:57;18.97;;;7.30;;
11185;SDS011;5649;52.422;13.754;2023-03-01T08:29:24;29.67;;;9.97;;
11185;SDS011;5649;52.422;13.754;2023-03-01T08:31:50;24.00;;;9.63;;
11185;SDS011;5649;52.422;13.754;2023-03-01T08:34:17;26.10;;;9.80;;
11185;SDS011;5649;52.422;13.754;2023-03-01T08:36:44;32.00;;;10.47;;
11185;SDS011;5649;52.422;13.754;2023-03-01T08:39:11;28.40;;;12.20;;
11185;SDS011;5649;52.422;13.754;2023-03-01T08:41:38;42.20;;;10.10;;
11185;SDS011;5649;52.422;13.754;2023-03-01T08:44:04;20.00;;;9.23;;
11185;SDS011;5649;52.422;13.754;2023-03-01T08:46:31;33.80;;;7.40;;
11185;SDS011;5649;52.422;13.754;2023-03-01T08:48:58;14.03;;;8.10;;
11185;SDS011;5649;52.422;13.754;2023-03-01T08:51:24;20.77;;;7.50;;
11185;SDS011;5649;52.422;13.754;2023-03-01T08:53:50;20.45;;;8.20;;
11185;SDS011;5649;52.422;13.754;2023-03-01T08:56:17;14.53;;;8.10;;
11185;SDS011;5649;52.422;13.754;2023-03-01T08:58:47;53.90;;;7.97;;
11185;SDS011;5649;52.422;13.754;2023-03-01T09:01:17;34.97;;;7.27;;
11185;SDS011;5649;52.422;13.754;2023-03-01T09:03:43;12.77;;;6.33;;
11185;SDS011;5649;52.422;13.754;2023-03-01T09:06:10;21.70;;;6.83;;
11185;SDS011;5649;52.422;13.754;2023-03-01T09:08:40;15.13;;;6.70;;
11185;SDS011;5649;52.422;13.754;2023-03-01T09:11:07;13.20;;;6.33;;
11185;SDS011;5649;52.422;13.754;2023-03-01T09:13:33;23.37;;;5.33;;
11185;SDS011;5649;52.422;13.754;2023-03-01T09:16:04;14.60;;;5.57;;
11185;SDS011;5649;52.422;13.754;2023-03-01T09:18:31;15.23;;;6.07;;
11185;SDS011;5649;52.422;13.754;2023-03-01T09:21:00;11.83;;;5.03;;
11185;SDS011;5649;52.422;13.754;2023-03-01T09:23:27;12.13;;;5.80;;
11185;SDS011;5649;52.422;13.754;2023-03-01T09:25:53;10.37;;;5.77;;
11185;SDS011;5649;52.422;13.754;2023-03-01T09:28:19;9.27;;;4.23;;
11185;SDS011;5649;52.422;13.754;2023-03-01T09:30:45;14.67;;;4.77;;
11185;SDS011;5649;52.422;13.754;2023-03-01T09:33:11;12.27;;;4.83;;
11185;SDS011;5649;52.422;13.754;2023-03-01T09:35:39;7.73;;;3.50;;
11185;SDS011;5649;52.422;13.754;2023-03-01T09:38:10;7.97;;;4.07;;
11185;SDS011;5649;52.422;13.754;2023-03-01T09:40:41;27.77;;;3.60;;
11185;SDS011;5649;52.422;13.754;2023-03-01T09:43:08;6.43;;;3.77;;
11185;SDS011;5649;52.422;13.754;2023-03-01T09:45:40;11.13;;;3.87;;
11185;SDS011;5649;52.422;13.754;2023-03-01T09:48:11;6.90;;;3.50;;
11185;SDS011;5649;52.422;13.754;2023-03-01T09:50:39;14.17;;;3.30;;
11185;SDS011;5649;52.422;13.754;2023-03-01T09:53:10;7.40;;;3.70;;
11185;SDS011;5649;52.422;13.754;2023-03-01T09:55:45;8.80;;;4.40;;
11185;SDS011;5649;52.422;13.754;2023-03-01T10:00:44;28.47;;;5.00;;
11185;SDS011;5649;52.422;13.754;2023-03-01T10:10:44;8.07;;;3.33;;
11185;SDS011;5649;52.422;13.754;2023-03-01T10:15:57;7.23;;;3.63;;
11185;SDS011;5649;52.422;13.754;2023-03-01T10:18:28;12.00;;;3.97;;
11185;SDS011;5649;52.422;13.754;2023-03-01T10:20:59;12.93;;;3.93;;
11185;SDS011;5649;52.422;13.754;2023-03-01T10:23:26;3.27;;;2.60;;
11185;SDS011;5649;52.422;13.754;2023-03-01T10:31:18;7.73;;;2.57;;
11185;SDS011;5649;52.422;13.754;2023-03-01T10:33:45;7.77;;;3.87;;
11185;SDS011;5649;52.422;13.754;2023-03-01T10:36:12;4.00;;;2.07;;
11185;SDS011;5649;52.422;13.754;2023-03-01T10:38:57;7.00;;;2.57;;
11185;SDS011;5649;52.422;13.754;2023-03-01T10:41:24;9.63;;;3.30;;
11185;SDS011;5649;52.422;13.754;2023-03-01T10:43:55;8.67;;;3.07;;
11185;SDS011;5649;52.422;13.754;2023-03-01T10:49:34;6.60;;;2.70;;
11185;SDS011;5649;52.422;13.754;2023-03-01T10:51:40;16.30;;;2.87;;
11185;SDS011;5649;52.422;13.754;2023-03-01T10:54:29;33.93;;;4.13;;
11185;SDS011;5649;52.422;13.754;2023-03-01T10:56:57;8.40;;;3.13;;
11185;SDS011;5649;52.422;13.754;2023-03-01T11:04:34;17.70;;;2.73;;
11185;SDS011;5649;52.422;13.754;2023-03-01T11:07:01;5.50;;;2.70;;
11185;SDS011;5649;52.422;13.754;2023-03-01T11:09:30;7.03;;;2.50;;
11185;SDS011;5649;52.422;13.754;2023-03-01T11:12:03;5.00;;;2.93;;
11185;SDS011;5649;52.422;13.754;2023-03-01T11:14:32;2.40;;;2.20;;
11185;SDS011;5649;52.422;13.754;2023-03-01T11:19:38;6.30;;;3.23;;
11185;SDS011;5649;52.422;13.754;2023-03-01T11:22:10;3.43;;;2.70;;
11185;SDS011;5649;52.422;13.754;2023-03-01T11:24:41;6.37;;;2.93;;
11185;SDS011;5649;52.422;13.754;2023-03-01T11:27:28;5.70;;;2.60;;
11185;SDS011;5649;52.422;13.754;2023-03-01T11:30:18;13.80;;;3.23;;
11185;SDS011;5649;52.422;13.754;2023-03-01T11:35:30;4.73;;;1.83;;
11185;SDS011;5649;52.422;13.754;2023-03-01T11:40:33;3.73;;;2.77;;
11185;SDS011;5649;52.422;13.754;2023-03-01T11:45:28;2.40;;;1.87;;
11185;SDS011;5649;52.422;13.754;2023-03-01T11:48:02;12.80;;;2.30;;
11185;SDS011;5649;52.422;13.754;2023-03-01T12:08:38;6.80;;;1.73;;
11185;SDS011;5649;52.422;13.754;2023-03-01T12:18:44;2.10;;;1.90;;
11185;SDS011;5649;52.422;13.754;2023-03-01T12:21:30;4.53;;;2.30;;
11185;SDS011;5649;52.422;13.754;2023-03-01T12:34:46;5.53;;;1.90;;
11185;SDS011;5649;52.422;13.754;2023-03-01T12:36:55;2.33;;;1.70;;
11185;SDS011;5649;52.422;13.754;2023-03-01T12:39:33;2.93;;;2.17;;
11185;SDS011;5649;52.422;13.754;2023-03-01T12:47:19;12.87;;;2.57;;
11185;SDS011;5649;52.422;13.754;2023-03-01T12:49:56;4.30;;;2.80;;
11185;SDS011;5649;52.422;13.754;2023-03-01T12:52:35;11.03;;;3.00;;
11185;SDS011;5649;52.422;13.754;2023-03-01T12:55:05;29.43;;;2.50;;
11185;SDS011;5649;52.422;13.754;2023-03-01T12:57:37;8.63;;;2.33;;
11185;SDS011;5649;52.422;13.754;2023-03-01T13:05:37;2.20;;;2.00;;
11185;SDS011;5649;52.422;13.754;2023-03-01T13:10:39;1.77;;;1.60;;
11185;SDS011;5649;52.422;13.754;2023-03-01T13:13:14;3.23;;;1.87;;
11185;SDS011;5649;52.422;13.754;2023-03-01T13:15:43;8.87;;;2.77;;
11185;SDS011;5649;52.422;13.754;2023-03-01T13:31:01;10.17;;;2.90;;
11185;SDS011;5649;52.422;13.754;2023-03-01T13:35:54;2.17;;;1.97;;
11185;SDS011;5649;52.422;13.754;2023-03-01T13:38:37;4.40;;;2.80;;
11185;SDS011;5649;52.422;13.754;2023-03-01T13:41:03;4.73;;;1.77;;
11185;SDS011;5649;52.422;13.754;2023-03-01T13:43:36;16.30;;;2.57;;
11185;SDS011;5649;52.422;13.754;2023-03-01T13:46:10;11.27;;;2.37;;
11185;SDS011;5649;52.422;13.754;2023-03-01T13:48:37;7.60;;;2.60;;
11185;SDS011;5649;52.422;13.754;2023-03-01T13:51:05;6.90;;;2.50;;
11185;SDS011;5649;52.422;13.754;2023-03-01T13:53:37;6.30;;;2.60;;
11185;SDS011;5649;52.422;13.754;2023-03-01T13:56:09;4.40;;;2.17;;
11185;SDS011;5649;52.422;13.754;2023-03-01T14:01:23;3.30;;;1.90;;
11185;SDS011;5649;52.422;13.754;2023-03-01T14:03:49;3.90;;;2.17;;
11185;SDS011;5649;52.422;13.754;2023-03-01T14:06:16;3.53;;;2.43;;
11185;SDS011;5649;52.422;13.754;2023-03-01T14:08:45;13.73;;;2.53;;
11185;SDS011;5649;52.422;13.754;2023-03-01T14:16:36;4.47;;;2.10;;
11185;SDS011;5649;52.422;13.754;2023-03-01T14:19:16;8.13;;;2.00;;
11185;SDS011;5649;52.422;13.754;2023-03-01T14:21:43;7.17;;;2.80;;
11185;SDS011;5649;52.422;13.754;2023-03-01T14:24:20;6.10;;;2.40;;
11185;SDS011;5649;52.422;13.754;2023-03-01T14:26:47;14.23;;;3.27;;
11185;SDS011;5649;52.422;13.754;2023-03-01T14:31:51;3.00;;;2.00;;
11185;SDS011;5649;52.422;13.754;2023-03-01T14:34:22;8.30;;;2.77;;
11185;SDS011;5649;52.422;13.754;2023-03-01T14:36:48;23.63;;;3.37;;
11185;SDS011;5649;52.422;13.754;2023-03-01T14:39:24;9.57;;;2.60;;
11185;SDS011;5649;52.422;13.754;2023-03-01T14:41:51;7.70;;;2.27;;
11185;SDS011;5649;52.422;13.754;2023-03-01T14:44:21;4.43;;;2.40;;
11185;SDS011;5649;52.422;13.754;2023-03-01T14:46:51;16.13;;;3.47;;
11185;SDS011;5649;52.422;13.754;2023-03-01T14:49:25;5.47;;;2.43;;
11185;SDS011;5649;52.422;13.754;2023-03-01T14:54:25;13.87;;;3.80;;
11185;SDS011;5649;52.422;13.754;2023-03-01T14:56:53;7.33;;;2.10;;
11185;SDS011;5649;52.422;13.754;2023-03-01T14:59:22;5.13;;;1.93;;
11185;SDS011;5649;52.422;13.754;2023-03-01T15:01:50;5.60;;;1.80;;
11185;SDS011;5649;52.422;13.754;2023-03-01T15:04:16;20.10;;;2.60;;
11185;SDS011;5649;52.422;13.754;2023-03-01T15:06:42;20.67;;;2.80;;
11185;SDS011;5649;52.422;13.754;2023-03-01T15:09:13;3.83;;;2.17;;
11185;SDS011;5649;52.422;13.754;2023-03-01T15:11:43;4.73;;;2.07;;
11185;SDS011;5649;52.422;13.754;2023-03-01T15:16:54;2.80;;;2.33;;
11185;SDS011;5649;52.422;13.754;2023-03-01T15:19:20;11.83;;;2.60;;
11185;SDS011;5649;52.422;13.754;2023-03-01T15:21:48;3.00;;;2.13;;
11185;SDS011;5649;52.422;13.754;2023-03-01T15:24:24;4.10;;;2.60;;
11185;SDS011;5649;52.422;13.754;2023-03-01T15:26:59;2.30;;;1.73;;
11185;SDS011;5649;52.422;13.754;2023-03-01T15:29:32;2.77;;;2.17;;
11185;SDS011;5649;52.422;13.754;2023-03-01T15:32:05;5.23;;;2.60;;
11185;SDS011;5649;52.422;13.754;2023-03-01T15:34:35;15.73;;;2.37;;
11185;SDS011;5649;52.422;13.754;2023-03-01T15:37:03;12.30;;;3.37;;
11185;SDS011;5649;52.422;13.754;2023-03-01T15:42:02;10.80;;;3.57;;
11185;SDS011;5649;52.422;13.754;2023-03-01T15:44:30;2.93;;;2.00;;
11185;SDS011;5649;52.422;13.754;2023-03-01T15:46:56;4.63;;;2.53;;
11185;SDS011;5649;52.422;13.754;2023-03-01T15:51:49;3.53;;;2.67;;
11185;SDS011;5649;52.422;13.754;2023-03-01T15:54:18;9.27;;;4.10;;
11185;SDS011;5649;52.422;13.754;2023-03-01T15:56:44;5.07;;;2.87;;
11185;SDS011;5649;52.422;13.754;2023-03-01T15:59:11;4.87;;;2.40;;
11185;SDS011;5649;52.422;13.754;2023-03-01T16:01:39;5.17;;;2.43;;
11185;SDS011;5649;52.422;13.754;2023-03-01T16:04:05;6.50;;;2.53;;
11185;SDS011;5649;52.422;13.754;2023-03-01T16:06:31;25.13;;;2.73;;
11185;SDS011;5649;52.422;13.754;2023-03-01T16:08:57;8.23;;;2.53;;
11185;SDS011;5649;52.422;13.754;2023-03-01T16:11:23;8.17;;;2.73;;
11185;SDS011;5649;52.422;13.754;2023-03-01T16:13:49;12.83;;;2.20;;
11185;SDS011;5649;52.422;13.754;2023-03-01T16:16:16;3.10;;;1.87;;
11185;SDS011;5649;52.422;13.754;2023-03-01T16:18:43;3.10;;;2.53;;
11185;SDS011;5649;52.422;13.754;2023-03-01T16:21:23;4.23;;;2.20;;
11185;SDS011;5649;52.422;13.754;2023-03-01T16:23:49;2.43;;;2.20;;
11185;SDS011;5649;52.422;13.754;2023-03-01T16:26:16;4.27;;;2.60;;
11185;SDS011;5649;52.422;13.754;2023-03-01T16:28:43;5.03;;;2.37;;
11185;SDS011;5649;52.422;13.754;2023-03-01T16:31:09;2.30;;;1.90;;
11185;SDS011;5649;52.422;13.754;2023-03-01T16:33:36;19.77;;;2.10;;
11185;SDS011;5649;52.422;13.754;2023-03-01T16:36:09;18.80;;;3.03;;
11185;SDS011;5649;52.422;13.754;2023-03-01T16:38:35;4.03;;;2.40;;
11185;SDS011;5649;52.422;13.754;2023-03-01T16:41:01;4.40;;;2.47;;
11185;SDS011;5649;52.422;13.754;2023-03-01T16:43:28;6.67;;;2.73;;
11185;SDS011;5649;52.422;13.754;2023-03-01T16:45:54;7.10;;;2.10;;
11185;SDS011;5649;52.422;13.754;2023-03-01T16:48:21;6.27;;;2.33;;
11185;SDS011;5649;52.422;13.754;2023-03-01T16:50:55;10.60;;;3.43;;
11185;SDS011;5649;52.422;13.754;2023-03-01T16:53:21;4.73;;;3.13;;
11185;SDS011;5649;52.422;13.754;2023-03-01T16:55:52;11.50;;;4.60;;
11185;SDS011;5649;52.422;13.754;2023-03-01T16:58:18;7.50;;;3.87;;